Time;durP1;ratioP1;P1;durP2;ratioP2;P2;SDS_P1;SDS_P2;PMS_P1;PMS_P2;Temp;Humidity;BMP_temperature;BMP_pressure;BME280_temperature;BME280_humidity;BME280_pressure;Samples;Min_cycle;Max_cycle;Signal;HPM_P1;HPM_P2
2021/04/16 00:00:57;;;;;;;4.90;2.80;;;1.10;99.90;;;1.87;100.00;99082.72;5050863;28;20850;-80
2021/04/16 00:03:26;;;;;;;3.57;2.50;;;0.90;99.90;;;1.83;100.00;99086.44;5052309;28;20906;-80
2021/04/16 00:05:55;;;;;;;3.30;2.80;;;0.80;99.90;;;1.94;100.00;99082.16;5048241;28;20468;-80
2021/04/16 00:08:27;;;;;;;4.67;2.93;;;1.00;99.90;;;1.97;100.00;99081.16;5052845;28;20521;-81
2021/04/16 00:11:01;;;;;;;4.80;3.00;;;1.00;99.90;;;1.96;100.00;99079.50;5048272;28;20464;-80
2021/04/16 00:13:29;;;;;;;3.23;2.30;;;1.00;99.90;;;1.91;100.00;99071.25;5043503;28;20961;-80
2021/04/16 00:15:58;;;;;;;3.50;2.73;;;0.90;99.90;;;1.93;100.00;99080.53;5052436;28;20445;-80
2021/04/16 00:18:30;;;;;;;5.97;3.07;;;1.00;99.90;;;1.85;100.00;99071.69;5051201;28;20513;-80
2021/04/16 00:20:59;;;;;;;6.47;2.70;;;0.90;99.90;;;1.90;100.00;99075.59;5048406;28;20492;-80
2021/04/16 00:23:28;;;;;;;5.20;3.60;;;1.00;99.90;;;1.82;100.00;99077.06;5054037;28;20514;-80
2021/04/16 00:25:58;;;;;;;4.17;2.50;;;0.90;99.90;;;1.70;100.00;99072.78;5050635;28;20544;-80
2021/04/16 00:28:26;;;;;;;5.20;2.40;;;0.80;99.90;;;1.80;100.00;99069.44;5048089;28;20483;-80
2021/04/16 00:30:57;;;;;;;2.87;2.60;;;0.90;99.90;;;1.78;100.00;99065.31;5046381;28;20507;-80
2021/04/16 00:33:26;;;;;;;3.50;2.70;;;0.80;99.90;;;1.73;100.00;99063.06;5049214;28;20969;-80
2021/04/16 00:35:55;;;;;;;4.07;2.90;;;0.80;99.90;;;1.72;100.00;99066.56;5051747;28;20465;-80
2021/04/16 00:38:24;;;;;;;2.90;2.70;;;0.80;99.90;;;1.77;100.00;99059.31;5040935;28;21198;-80
2021/04/16 00:40:55;;;;;;;2.30;2.10;;;0.90;99.90;;;1.60;100.00;99056.28;5044817;28;20535;-80
2021/04/16 00:43:27;;;;;;;3.37;2.40;;;0.60;99.90;;;1.53;100.00;99056.69;5052737;28;20711;-81
2021/04/16 00:46:16;;;;;;;2.90;2.50;;;0.60;99.90;;;1.68;100.00;99051.41;5049925;28;20469;-80
2021/04/16 00:48:50;;;;;;;4.80;2.63;;;0.80;99.90;;;1.78;100.00;99055.81;5049180;28;20955;-80
2021/04/16 00:51:25;;;;;;;6.40;2.67;;;1.00;99.90;;;1.71;100.00;99051.19;5055227;28;20473;-80
2021/04/16 00:53:54;;;;;;;4.40;2.40;;;0.80;99.90;;;1.60;100.00;99051.13;5047646;28;20468;-80
2021/04/16 00:56:22;;;;;;;2.80;2.50;;;0.70;99.90;;;1.57;100.00;99051.31;5052371;28;20487;-80
2021/04/16 00:58:51;;;;;;;3.03;2.60;;;0.60;99.90;;;1.70;100.00;99047.00;5047991;28;20452;-80
2021/04/16 01:01:19;;;;;;;4.70;2.50;;;0.80;99.90;;;1.75;100.00;99052.63;5052010;28;20914;-80
2021/04/16 01:03:47;;;;;;;2.83;2.00;;;0.90;99.90;;;1.72;100.00;99045.13;5045386;28;20469;-80
2021/04/16 01:06:15;;;;;;;2.30;2.10;;;0.80;99.90;;;1.59;100.00;99049.47;5055422;28;20443;-80
2021/04/16 01:08:43;;;;;;;2.33;2.13;;;0.60;99.90;;;1.61;100.00;99050.19;5052076;28;20885;-79
2021/04/16 01:11:10;;;;;;;2.30;2.10;;;0.60;99.90;;;1.39;100.00;99053.41;5054019;28;20929;-80
2021/04/16 01:13:40;;;;;;;2.33;2.10;;;0.40;99.90;;;1.34;100.00;99042.59;5053679;28;20855;-80
2021/04/16 01:16:13;;;;;;;6.53;2.80;;;0.40;99.90;;;1.43;100.00;99039.38;5049260;28;20469;-80
2021/04/16 01:18:47;;;;;;;3.63;2.70;;;0.50;99.90;;;1.51;100.00;99048.25;5042031;28;20556;-80
2021/04/16 01:21:22;;;;;;;3.00;2.23;;;0.60;99.90;;;1.47;100.00;99044.25;5052007;28;20448;-80
2021/04/16 01:23:56;;;;;;;2.90;2.33;;;0.60;99.90;;;1.48;100.00;99038.16;5052050;28;20555;-80
2021/04/16 01:26:30;;;;;;;4.00;2.37;;;0.60;99.90;;;1.53;100.00;99037.81;5047918;28;20461;-80
2021/04/16 01:28:58;;;;;;;5.33;2.40;;;0.60;99.90;;;1.42;100.00;99038.56;5046150;28;20956;-80
2021/04/16 01:31:29;;;;;;;7.43;2.43;;;0.50;99.90;;;1.39;100.00;99043.09;5046351;28;20489;-81
2021/04/16 01:33:57;;;;;;;7.53;2.43;;;0.40;99.90;;;1.35;100.00;99039.94;5049378;28;20465;-80
2021/04/16 01:36:28;;;;;;;2.67;1.93;;;0.40;99.90;;;1.49;100.00;99039.00;5047717;28;20966;-80
2021/04/16 01:38:57;;;;;;;2.23;2.03;;;0.60;99.90;;;1.56;100.00;99041.97;5049796;28;20820;-80
2021/04/16 01:41:29;;;;;;;6.80;2.37;;;0.60;99.90;;;1.51;100.00;99037.94;5053755;28;20881;-80
2021/04/16 01:44:02;;;;;;;3.83;2.37;;;0.50;99.90;;;1.47;100.00;99031.34;5053262;28;20952;-80
2021/04/16 01:46:47;;;;;;;3.60;2.10;;;0.50;99.90;;;1.56;100.00;99036.81;5048229;28;20465;-80
2021/04/16 01:49:14;;;;;;;3.83;2.20;;;0.60;99.90;;;1.56;100.00;99029.09;5053092;28;20496;-80
2021/04/16 01:51:42;;;;;;;2.50;2.20;;;0.60;99.90;;;1.62;100.00;99031.22;5047627;28;20457;-80
2021/04/16 01:54:14;;;;;;;3.10;2.43;;;0.70;99.90;;;1.59;100.00;99029.69;5054781;28;20465;-80
2021/04/16 01:56:46;;;;;;;2.53;2.10;;;0.70;99.90;;;1.47;100.00;99020.22;5050929;28;20476;-80
2021/04/16 01:59:16;;;;;;;2.50;2.00;;;0.50;99.90;;;1.62;100.00;99023.50;5049375;28;20445;-80
2021/04/16 02:01:44;;;;;;;4.30;3.20;;;0.70;99.90;;;1.62;100.00;99020.91;5050368;28;20936;-80
2021/04/16 02:04:13;;;;;;;5.30;2.27;;;0.70;99.90;;;1.45;100.00;99017.78;5046245;28;20487;-80
2021/04/16 02:06:42;;;;;;;8.13;2.10;;;0.50;99.90;;;1.43;100.00;99011.88;5047753;28;20497;-80
2021/04/16 02:09:13;;;;;;;3.10;1.93;;;0.50;99.90;;;1.40;100.00;99016.41;5047242;28;20481;-80
2021/04/16 02:11:44;;;;;;;3.73;1.90;;;0.50;99.90;;;1.49;100.00;99019.19;5044023;28;20545;-80
2021/04/16 02:14:13;;;;;;;4.73;2.50;;;0.60;99.90;;;1.62;100.00;99019.16;5048659;28;20452;-80
2021/04/16 02:16:41;;;;;;;5.57;2.13;;;0.70;99.90;;;1.71;100.00;99012.53;5049752;28;20453;-80
2021/04/16 02:19:09;;;;;;;3.27;2.00;;;0.80;99.90;;;1.75;100.00;99008.81;5047319;28;20936;-80
2021/04/16 02:21:37;;;;;;;1.80;1.67;;;0.90;99.90;;;1.57;100.00;99010.91;5054843;28;20456;-80
2021/04/16 02:24:07;;;;;;;2.67;2.00;;;0.70;99.90;;;1.66;100.00;99005.13;5052497;28;20514;-80
2021/04/16 02:26:35;;;;;;;3.40;2.10;;;0.80;99.90;;;1.82;100.00;99004.88;5051572;28;20469;-80
2021/04/16 02:29:05;;;;;;;2.50;2.30;;;1.00;99.90;;;1.82;100.00;99004.88;5053432;28;20883;-80
2021/04/16 02:31:33;;;;;;;2.13;1.80;;;1.00;99.90;;;1.86;100.00;99011.47;5059862;28;20488;-80
2021/04/16 02:34:01;;;;;;;2.00;1.83;;;1.00;99.90;;;1.74;100.00;98999.41;5051366;28;20518;-80
2021/04/16 02:36:29;;;;;;;4.90;2.40;;;0.80;99.90;;;1.71;100.00;98999.63;5045349;28;20461;-80
2021/04/16 02:38:56;;;;;;;2.23;1.63;;;0.80;99.90;;;1.61;100.00;99003.78;5057475;28;20512;-80
2021/04/16 02:41:24;;;;;;;3.80;1.90;;;0.70;99.90;;;1.66;100.00;99004.31;5051500;28;20472;-80
2021/04/16 02:43:52;;;;;;;3.27;2.27;;;0.70;99.90;;;1.70;100.00;98996.22;5049065;28;21039;-80
2021/04/16 02:46:20;;;;;;;5.00;2.33;;;0.80;99.90;;;1.73;100.00;98995.22;5054457;28;20550;-80
2021/04/16 02:48:48;;;;;;;5.53;2.20;;;0.80;99.90;;;1.72;100.00;98994.41;5053894;28;20459;-80
2021/04/16 02:51:15;;;;;;;2.50;2.30;;;0.80;99.90;;;1.61;100.00;98994.31;5049127;28;20646;-80
2021/04/16 02:53:43;;;;;;;3.60;2.40;;;0.70;99.90;;;1.62;100.00;98995.16;5055004;28;20468;-79
2021/04/16 02:56:11;;;;;;;2.40;1.93;;;0.70;99.90;;;1.70;100.00;99001.38;5051472;28;20800;-79
2021/04/16 02:58:38;;;;;;;2.30;1.90;;;0.80;99.90;;;1.70;100.00;98995.44;5052617;28;20480;-80
2021/04/16 03:01:06;;;;;;;3.80;2.27;;;0.80;99.90;;;1.67;100.00;98996.44;5051578;28;20480;-79
2021/04/16 03:03:35;;;;;;;3.03;2.00;;;0.80;99.90;;;1.62;100.00;98997.72;5052155;28;20459;-79
2021/04/16 03:06:06;;;;;;;3.23;2.23;;;0.80;99.90;;;1.61;100.00;98996.06;5049460;28;20506;-80
2021/04/16 03:08:34;;;;;;;3.10;2.27;;;0.70;99.90;;;1.71;100.00;98990.16;5050974;28;20465;-80
2021/04/16 03:11:03;;;;;;;2.70;2.03;;;0.80;99.90;;;1.80;100.00;98986.94;5049040;28;20962;-79
2021/04/16 03:13:31;;;;;;;2.57;2.10;;;0.90;99.90;;;1.88;100.00;98988.97;5049014;28;20460;-79
2021/04/16 03:16:00;;;;;;;4.63;1.97;;;1.00;99.90;;;1.90;100.00;98982.78;5051115;28;21066;-79
2021/04/16 03:18:28;;;;;;;1.70;1.60;;;1.00;99.90;;;1.86;100.00;98981.34;5060663;28;20917;-79
2021/04/16 03:20:56;;;;;;;2.30;2.00;;;1.00;99.90;;;1.86;100.00;98986.50;5055349;28;20956;-79
2021/04/16 03:23:24;;;;;;;3.67;1.90;;;1.00;99.90;;;1.91;100.00;98988.72;5050494;28;20461;-79
2021/04/16 03:25:51;;;;;;;2.70;1.70;;;1.00;99.90;;;1.92;100.00;98980.91;5050277;28;20449;-79
2021/04/16 03:28:19;;;;;;;5.07;2.63;;;1.00;99.90;;;2.00;100.00;98980.34;5047245;28;20497;-79
2021/04/16 03:30:46;;;;;;;4.07;2.10;;;1.10;99.90;;;2.02;100.00;98976.72;5048727;28;20493;-80
2021/04/16 03:33:14;;;;;;;4.43;2.10;;;1.20;99.90;;;2.05;100.00;98980.03;5054389;28;20548;-79
2021/04/16 03:35:42;;;;;;;6.20;2.47;;;1.20;99.90;;;2.08;100.00;98980.63;5053795;28;20461;-80
2021/04/16 03:38:10;;;;;;;3.53;2.20;;;1.30;99.90;;;2.11;100.00;98975.25;5060596;28;20965;-79
2021/04/16 03:40:38;;;;;;;10.90;2.50;;;1.30;99.90;;;2.13;100.00;98978.53;5047311;28;20461;-79
2021/04/16 03:43:06;;;;;;;3.33;2.10;;;1.30;99.90;;;2.07;100.00;98978.97;5050876;28;20457;-79
2021/04/16 03:45:34;;;;;;;3.10;2.03;;;1.20;99.90;;;2.08;100.00;98983.22;5044060;28;20469;-80
2021/04/16 03:48:01;;;;;;;1.80;1.70;;;1.20;99.90;;;2.07;100.00;98986.72;5049620;28;20463;-79
2021/04/16 03:50:33;;;;;;;4.90;2.30;;;1.20;99.90;;;2.10;100.00;98985.66;5051641;28;21010;-79
2021/04/16 03:53:00;;;;;;;4.40;2.50;;;1.20;99.90;;;2.07;100.00;98980.75;5053139;28;20464;-80
2021/04/16 03:55:35;;;;;;;6.33;2.50;;;1.20;99.90;;;2.11;100.00;98979.59;5050744;28;20468;-79
2021/04/16 03:58:05;;;;;;;4.37;2.50;;;1.20;99.90;;;2.16;100.00;98985.22;5047044;28;20494;-79
2021/04/16 04:00:38;;;;;;;3.20;2.40;;;1.30;99.90;;;2.22;100.00;98983.00;5050842;28;20472;-79
2021/04/16 04:03:06;;;;;;;3.47;2.47;;;1.30;99.90;;;2.28;100.00;98982.59;5050799;28;21002;-80
2021/04/16 04:05:34;;;;;;;4.00;2.47;;;1.40;99.90;;;2.23;100.00;98994.16;5056011;28;20468;-79
2021/04/16 04:08:02;;;;;;;2.83;2.37;;;1.40;99.90;;;2.20;100.00;98991.81;5048674;28;20514;-79
2021/04/16 04:10:35;;;;;;;5.57;2.20;;;1.30;99.90;;;2.25;100.00;98992.31;5055603;28;20499;-79
2021/04/16 04:13:06;;;;;;;3.03;2.20;;;1.40;99.90;;;2.17;100.00;98995.44;5050523;28;20480;-80
2021/04/16 04:15:34;;;;;;;2.30;1.87;;;1.30;99.90;;;2.21;100.00;98983.97;5051541;28;20450;-80
2021/04/16 04:18:08;;;;;;;4.30;2.20;;;1.30;99.90;;;2.27;100.00;98990.44;5046110;28;20488;-79
2021/04/16 04:20:38;;;;;;;3.00;2.30;;;1.40;99.90;;;2.28;100.00;98989.50;5054605;28;20823;-80
2021/04/16 04:23:08;;;;;;;3.43;2.10;;;1.40;99.90;;;2.34;100.00;98994.22;5044078;28;20869;-80
2021/04/16 04:25:37;;;;;;;2.80;2.17;;;1.40;99.90;;;2.38;100.00;98987.91;5050886;28;20457;-79
2021/04/16 04:28:06;;;;;;;3.50;2.80;;;1.50;99.90;;;2.39;100.00;98987.78;5048503;28;20472;-80
2021/04/16 04:30:37;;;;;;;5.27;2.20;;;1.50;99.90;;;2.39;100.00;98990.38;5047875;28;21171;-79
2021/04/16 04:33:06;;;;;;;2.57;2.23;;;1.50;99.90;;;2.43;100.00;98991.78;5050976;28;20460;-80
2021/04/16 04:35:35;;;;;;;4.83;2.03;;;1.50;99.90;;;2.44;100.00;98992.59;5046001;28;20456;-80
2021/04/16 04:38:04;;;;;;;3.30;2.13;;;1.50;99.90;;;2.36;100.00;98990.56;5044360;28;20465;-82
2021/04/16 04:40:31;;;;;;;2.43;2.03;;;1.50;99.90;;;2.37;100.00;98989.66;5042615;28;20523;-80
2021/04/16 04:43:00;;;;;;;4.20;2.53;;;1.50;99.90;;;2.27;100.00;98990.44;5045815;28;20472;-79
2021/04/16 04:45:28;;;;;;;3.23;2.10;;;1.30;99.90;;;2.19;100.00;98993.56;5049688;28;20468;-80
2021/04/16 04:47:56;;;;;;;5.83;2.63;;;1.30;99.90;;;2.30;100.00;98995.38;5053018;28;20480;-80
2021/04/16 04:50:25;;;;;;;5.33;2.80;;;1.40;99.90;;;2.30;100.00;98993.59;5051865;28;20566;-82
2021/04/16 04:52:55;;;;;;;2.37;2.00;;;1.40;99.90;;;2.37;100.00;98989.66;5044371;28;20456;-80
2021/04/16 04:55:27;;;;;;;2.67;2.20;;;1.50;99.90;;;2.29;100.00;98989.38;5049567;28;20479;-81
2021/04/16 04:57:54;;;;;;;2.10;1.90;;;1.40;99.90;;;2.34;100.00;98986.47;5049795;28;20445;-81
2021/04/16 05:00:24;;;;;;;7.83;2.50;;;1.50;99.90;;;2.27;100.00;98991.25;5043283;28;20996;-80
2021/04/16 05:02:51;;;;;;;2.23;2.03;;;1.40;99.90;;;2.27;100.00;98985.28;5051496;28;20483;-80
2021/04/16 05:05:22;;;;;;;2.50;2.07;;;1.50;99.90;;;2.30;100.00;98995.38;5045845;28;20449;-80
2021/04/16 05:07:50;;;;;;;3.13;2.20;;;1.40;99.90;;;2.34;100.00;98991.63;5049120;28;20452;-80
2021/04/16 05:10:18;;;;;;;3.23;2.20;;;1.50;99.90;;;2.37;100.00;98986.25;5049996;28;20473;-81
2021/04/16 05:12:46;;;;;;;3.67;2.47;;;1.50;99.90;;;2.42;100.00;98984.16;5051325;28;20567;-80
2021/04/16 05:15:16;;;;;;;2.63;2.40;;;1.50;99.90;;;2.38;100.00;98988.72;5056690;28;20473;-80
2021/04/16 05:17:44;;;;;;;2.60;2.10;;;1.50;99.90;;;2.34;100.00;98984.72;5058333;28;20444;-81
2021/04/16 05:20:14;;;;;;;3.37;2.33;;;1.50;99.90;;;2.43;100.00;98981.44;5048465;28;20491;-80
2021/04/16 05:22:41;;;;;;;2.73;2.50;;;1.60;99.90;;;2.46;100.00;98990.75;5050658;28;20491;-82
2021/04/16 05:25:11;;;;;;;5.10;2.53;;;1.70;99.90;;;2.41;100.00;98975.59;5049700;28;20468;-80
2021/04/16 05:27:39;;;;;;;2.70;2.27;;;1.60;99.90;;;2.43;100.00;98981.44;5040506;28;20450;-80
2021/04/16 05:30:10;;;;;;;3.23;2.47;;;1.60;99.90;;;2.52;100.00;98977.38;5050169;28;20907;-80
2021/04/16 05:32:37;;;;;;;2.50;2.30;;;1.70;99.90;;;2.57;100.00;98977.06;5048730;28;20449;-81
2021/04/16 05:35:08;;;;;;;7.13;2.40;;;1.70;99.90;;;2.65;100.00;98969.53;5050642;28;20897;-80
2021/04/16 05:37:37;;;;;;;5.67;2.40;;;1.80;99.90;;;2.75;100.00;98973.06;5051120;28;20800;-80
2021/04/16 05:40:08;;;;;;;4.07;2.50;;;1.90;99.90;;;2.79;100.00;98971.91;5052636;28;21000;-80
2021/04/16 05:42:36;;;;;;;5.27;2.40;;;1.90;99.90;;;2.80;100.00;98979.56;5049932;28;20482;-80
2021/04/16 05:45:06;;;;;;;3.43;2.57;;;2.10;99.90;;;2.84;100.00;98967.25;5050113;28;20440;-81
2021/04/16 05:47:34;;;;;;;4.93;2.90;;;2.00;99.90;;;2.84;100.00;98973.22;5048615;28;20446;-81
2021/04/16 05:50:01;;;;;;;2.87;2.40;;;2.00;99.90;;;2.88;100.00;98978.97;5047357;28;21019;-81
2021/04/16 05:52:30;;;;;;;4.87;2.60;;;2.00;99.90;;;2.95;100.00;98975.00;5052209;28;20903;-81
2021/04/16 05:54:58;;;;;;;3.37;2.37;;;2.10;99.90;;;2.98;100.00;98977.34;5051953;28;20448;-80
2021/04/16 05:57:25;;;;;;;9.70;3.00;;;2.20;99.90;;;3.12;100.00;98976.28;5053449;28;20438;-81
2021/04/16 05:59:53;;;;;;;7.30;3.50;;;2.30;99.90;;;3.16;100.00;98981.09;5051201;28;20815;-80
2021/04/16 06:02:27;;;;;;;7.43;2.97;;;2.40;99.90;;;3.21;100.00;98968.66;5053332;28;20453;-81
2021/04/16 06:04:56;;;;;;;6.00;3.03;;;2.40;99.90;;;3.24;100.00;98977.94;5051040;28;20565;-80
2021/04/16 06:07:24;;;;;;;3.33;3.03;;;2.50;99.90;;;3.27;100.00;98975.94;5050518;28;20468;-80
2021/04/16 06:09:55;;;;;;;6.53;3.57;;;2.50;99.90;;;3.32;100.00;98971.25;5052262;28;20820;-80
2021/04/16 06:12:23;;;;;;;4.07;2.67;;;2.60;99.90;;;3.38;100.00;98973.34;5050974;28;20825;-80
2021/04/16 06:14:51;;;;;;;7.03;2.97;;;2.60;99.90;;;3.41;100.00;98977.44;5048224;28;21151;-80
2021/04/16 06:17:20;;;;;;;6.57;3.27;;;2.60;99.90;;;3.47;100.00;98970.03;5050256;28;20461;-85
2021/04/16 06:19:50;;;;;;;3.27;2.50;;;2.70;99.90;;;3.52;100.00;98972.28;5047521;28;20828;-80
2021/04/16 06:22:19;;;;;;;4.87;3.13;;;2.70;99.90;;;3.59;100.00;98972.59;5046777;28;20594;-80
2021/04/16 06:24:49;;;;;;;7.60;3.20;;;2.80;99.90;;;3.63;100.00;98977.44;5049993;28;20464;-80
2021/04/16 06:27:19;;;;;;;4.97;3.07;;;2.80;99.90;;;3.68;100.00;98964.16;5052645;28;20513;-80
2021/04/16 06:29:46;;;;;;;20.20;3.50;;;2.90;99.90;;;3.73;100.00;98965.41;5051705;28;20456;-80
2021/04/16 06:32:16;;;;;;;4.43;2.97;;;2.90;99.90;;;3.79;100.00;98969.25;5055342;28;20557;-80
2021/04/16 06:34:44;;;;;;;5.97;2.70;;;3.00;99.90;;;3.83;100.00;98970.66;5051247;28;22221;-81
2021/04/16 06:37:12;;;;;;;6.67;3.10;;;3.10;99.90;;;3.87;100.00;98977.25;5052171;28;20544;-80
2021/04/16 06:39:40;;;;;;;3.97;2.97;;;3.10;99.90;;;3.93;100.00;98962.06;5056294;28;20471;-80
2021/04/16 06:42:21;;;;;;;4.33;2.87;;;3.10;99.90;;;3.99;100.00;98960.75;5055959;28;21437;-80
2021/04/16 06:44:49;;;;;;;3.40;2.83;;;3.20;99.90;;;4.07;100.00;98966.13;5048419;28;20451;-80
2021/04/16 06:47:24;;;;;;;3.87;2.90;;;3.30;99.90;;;4.15;100.00;98960.34;5057533;28;20877;-80
2021/04/16 06:49:56;;;;;;;6.80;3.03;;;3.40;99.90;;;4.18;100.00;98960.09;5053771;28;20468;-80
2021/04/16 06:52:33;;;;;;;9.20;3.40;;;3.40;99.90;;;4.26;100.00;98961.13;5051283;28;20464;-81
2021/04/16 06:55:11;;;;;;;4.67;3.57;;;3.50;99.90;;;4.28;100.00;98960.97;5048989;28;20487;-80
2021/04/16 06:57:48;;;;;;;159.07;68.10;;;3.60;99.90;;;4.37;100.00;98966.22;5052029;28;20956;-88
2021/04/16 07:00:30;;;;;;;19.87;8.17;;;3.70;99.90;;;4.41;100.00;98962.44;5051901;28;20464;-80
2021/04/16 07:03:07;;;;;;;4.87;2.93;;;3.70;99.90;;;4.49;100.00;98965.22;5047587;28;20464;-80
2021/04/16 07:05:42;;;;;;;6.30;3.10;;;3.80;99.90;;;4.47;97.75;98967.13;5056195;28;20913;-80
2021/04/16 07:08:24;;;;;;;3.30;3.00;;;3.80;99.90;;;4.52;96.89;98970.16;5049568;28;20546;-80
2021/04/16 07:10:56;;;;;;;6.90;2.83;;;3.90;99.90;;;4.56;95.00;98962.94;5048049;28;20574;-79
2021/04/16 07:13:35;;;;;;;3.47;2.87;;;4.00;99.90;;;4.60;94.49;98966.94;5044119;28;20468;-80
2021/04/16 07:16:04;;;;;;;3.33;2.80;;;4.00;99.90;;;4.63;94.14;98966.69;5052225;28;20969;-80
2021/04/16 07:18:39;;;;;;;3.30;2.87;;;4.00;99.90;;;4.68;93.99;98979.25;5050259;28;20460;-80
2021/04/16 07:21:09;;;;;;;5.50;3.13;;;4.00;99.90;;;4.72;92.79;98967.69;5051017;28;20473;-80
2021/04/16 07:23:48;;;;;;;5.33;2.77;;;4.10;99.90;;;4.77;93.05;98966.38;5049461;28;20442;-80
2021/04/16 07:26:40;;;;;;;4.97;3.00;;;4.10;99.90;;;4.84;92.66;98970.09;5046892;28;21041;-80
2021/04/16 07:29:17;;;;;;;3.17;2.77;;;4.20;99.90;;;4.90;92.34;98963.56;5051239;28;21278;-79
2021/04/16 07:31:49;;;;;;;72.40;33.87;;;4.30;99.90;;;4.87;90.32;98969.00;5051425;28;20542;-80
2021/04/16 07:34:34;;;;;;;3.53;2.63;;;4.20;99.50;;;4.86;89.71;98962.19;5052291;28;20912;-79
2021/04/16 07:37:17;;;;;;;2.93;2.60;;;4.20;99.10;;;4.88;90.02;98965.47;5050609;28;20855;-79
2021/04/16 07:39:59;;;;;;;8.03;3.03;;;4.30;99.30;;;4.91;89.77;98960.84;5053515;28;20502;-79
2021/04/16 07:42:40;;;;;;;2.50;2.30;;;4.30;99.30;;;4.94;89.75;98964.94;5053880;28;20894;-79
2021/04/16 07:45:32;;;;;;;4.27;2.67;;;4.30;99.30;;;5.05;90.22;98957.91;5053885;28;20519;-79
2021/04/16 07:48:33;;;;;;;5.13;2.83;;;4.40;99.50;;;5.10;88.97;98970.50;5050720;28;20878;-80
2021/04/16 07:51:06;;;;;;;186.17;86.27;;;4.40;98.90;;;5.06;87.92;98967.34;5049126;28;20512;-89
2021/04/16 07:53:38;;;;;;;5.70;3.23;;;4.40;98.70;;;5.14;87.58;98961.50;5052568;28;20476;-80
2021/04/16 07:56:23;;;;;;;2.60;2.40;;;4.40;98.50;;;5.19;87.74;98969.72;5052823;28;21018;-79
2021/04/16 07:59:04;;;;;;;2.67;2.27;;;4.50;98.60;;;5.19;86.57;98953.31;5049822;28;20934;-79
2021/04/16 08:01:37;;;;;;;2.67;2.40;;;4.50;98.30;;;5.26;87.51;98957.88;5050198;28;20538;-79
2021/04/16 08:04:11;;;;;;;2.60;2.10;;;4.60;98.60;;;5.26;86.29;98955.28;5057621;28;21053;-79
2021/04/16 08:06:44;;;;;;;3.40;2.30;;;4.60;98.10;;;5.30;86.29;98951.47;5046406;28;20465;-79
2021/04/16 08:09:27;;;;;;;7.70;2.47;;;4.60;98.30;;;5.38;86.40;98959.38;5053993;28;20454;-79
2021/04/16 08:12:13;;;;;;;3.33;2.80;;;4.70;98.30;;;5.44;85.77;98958.88;5059639;28;20905;-79
2021/04/16 08:14:44;;;;;;;2.40;2.13;;;4.80;98.10;;;5.46;85.32;98956.16;5056053;28;20433;-79
2021/04/16 08:17:27;;;;;;;8.57;2.73;;;4.80;98.00;;;5.52;86.03;98958.19;5051252;28;20450;-79
2021/04/16 08:20:09;;;;;;;2.50;2.10;;;4.90;98.10;;;5.57;85.80;98959.47;5057720;28;20460;-80
2021/04/16 08:22:38;;;;;;;5.33;2.80;;;4.90;98.10;;;5.59;84.55;98957.53;5049763;28;20965;-79
2021/04/16 08:25:12;;;;;;;7.20;2.70;;;4.90;97.60;;;5.66;83.63;98957.81;5046843;28;20933;-80
2021/04/16 08:27:45;;;;;;;6.73;4.70;;;5.00;97.20;;;5.74;82.69;98965.78;5045948;28;20441;-80
2021/04/16 08:30:24;;;;;;;3.63;2.33;;;5.00;97.40;;;5.78;81.08;98967.16;5048523;28;20528;-79
2021/04/16 08:33:02;;;;;;;4.07;2.73;;;5.10;96.60;;;5.84;81.90;98958.81;5055500;28;20466;-79
2021/04/16 08:35:39;;;;;;;2.30;2.10;;;5.20;97.00;;;5.88;81.06;98968.03;5053199;28;20450;-79
2021/04/16 08:38:14;;;;;;;3.53;3.00;;;5.20;96.50;;;5.92;80.23;98960.78;5051172;28;20506;-79
2021/04/16 08:40:50;;;;;;;5.03;2.43;;;5.20;96.30;;;5.96;80.32;98969.94;5045858;28;20457;-81
2021/04/16 08:43:30;;;;;;;2.93;2.07;;;5.30;96.50;;;5.97;79.83;98967.19;5048533;28;20452;-80
2021/04/16 08:46:03;;;;;;;2.50;2.23;;;5.30;96.30;;;5.96;79.16;98969.94;5044980;28;20452;-80
2021/04/16 08:48:38;;;;;;;3.73;2.37;;;5.30;96.00;;;5.92;78.29;98964.19;5045259;28;20446;-79
2021/04/16 08:51:13;;;;;;;3.87;2.60;;;5.20;95.90;;;5.93;78.25;98965.84;5042712;28;20546;-79
2021/04/16 08:53:43;;;;;;;12.13;2.47;;;5.20;95.80;;;6.00;78.64;98960.94;5045909;28;20454;-79
2021/04/16 08:56:25;;;;;;;3.20;2.50;;;5.30;96.20;;;6.10;79.26;98960.94;5050605;28;20453;-80
2021/04/16 08:58:54;;;;;;;6.33;2.47;;;5.40;96.50;;;6.23;79.46;98964.06;5048804;28;20523;-79
2021/04/16 09:01:40;;;;;;;3.40;2.80;;;5.50;96.70;;;6.29;79.71;98955.72;5051900;28;20928;-79
2021/04/16 09:04:25;;;;;;;3.87;2.30;;;5.60;96.40;;;6.36;79.79;98955.03;5053668;28;20972;-80
2021/04/16 09:06:57;;;;;;;12.43;2.70;;;5.60;96.60;;;6.34;77.90;98963.94;5046428;28;20931;-79
2021/04/16 09:09:46;;;;;;;2.20;1.77;;;5.70;95.80;;;6.23;76.09;98962.31;5052022;28;20453;-79
2021/04/16 09:12:46;;;;;;;3.07;2.00;;;5.50;95.10;;;6.17;75.98;98957.66;5045438;28;21005;-80
2021/04/16 09:15:45;;;;;;;2.90;2.10;;;5.50;95.20;;;6.26;76.37;98961.19;5047443;28;20979;-80
2021/04/16 09:18:29;;;;;;;2.40;2.20;;;5.60;95.50;;;6.34;76.59;98951.78;5049893;28;20450;-80
2021/04/16 09:21:35;;;;;;;2.90;2.40;;;5.60;95.70;;;6.45;76.97;98956.00;5049743;28;20448;-80
2021/04/16 09:24:13;;;;;;;2.20;2.00;;;5.70;95.70;;;6.49;76.66;98952.97;5047307;28;20445;-80
2021/04/16 09:27:03;;;;;;;2.90;1.80;;;5.80;95.70;;;6.47;73.91;98947.09;5049189;28;20440;-79
2021/04/16 09:29:48;;;;;;;1.80;1.70;;;5.80;94.50;;;6.53;73.60;98956.13;5047414;28;20437;-80
2021/04/16 09:32:41;;;;;;;1.90;1.70;;;5.90;94.50;;;6.56;72.65;98953.22;5048955;28;20561;-80
2021/04/16 09:35:32;;;;;;;7.87;5.07;;;5.90;94.10;;;6.62;72.01;98951.88;5033752;28;20460;-89
2021/04/16 09:38:36;;;;;;;2.47;1.37;;;6.00;94.20;;;6.59;70.11;98950.38;5043350;28;20465;-80
2021/04/16 09:41:32;;;;;;;2.03;1.23;;;6.00;93.80;;;6.56;69.89;98968.81;5040650;28;20489;-81
2021/04/16 09:44:44;;;;;;;1.30;1.20;;;6.00;93.50;;;6.46;69.74;98974.03;5043338;28;20500;-80
2021/04/16 09:47:13;;;;;;;2.23;1.47;;;5.90;93.60;;;6.51;70.65;98971.84;5052011;28;20464;-81
2021/04/16 09:49:56;;;;;;;2.80;1.67;;;5.90;93.90;;;6.45;71.63;98976.78;5046824;28;20546;-81
2021/04/16 09:53:11;;;;;;;1.67;1.57;;;5.80;94.20;;;6.43;72.72;98981.28;5049907;28;20484;-81
2021/04/16 09:56:04;;;;;;;1.63;1.50;;;5.80;94.30;;;6.45;73.13;98971.59;5046780;28;20530;-81
2021/04/16 09:59:25;;;;;;;4.50;1.47;;;5.70;94.50;;;6.48;73.20;98977.34;5044575;28;20857;-81
2021/04/16 10:02:35;;;;;;;2.90;2.00;;;5.70;94.40;;;6.52;72.61;98968.31;5045618;28;20456;-81
2021/04/16 10:05:29;;;;;;;4.03;1.40;;;5.90;94.50;;;6.48;72.29;98961.75;5044819;28;20492;-80
2021/04/16 10:08:19;;;;;;;1.93;1.40;;;5.90;94.00;;;6.48;74.53;98961.75;5048397;28;20456;-80
2021/04/16 10:10:47;;;;;;;1.47;1.37;;;5.80;94.70;;;6.68;75.37;98956.50;5050203;28;20492;-80
2021/04/16 10:13:23;;;;;;;1.70;1.37;;;6.00;95.20;;;6.72;74.35;98953.50;5051159;28;20457;-80
2021/04/16 10:15:53;;;;;;;1.20;1.03;;;6.00;94.80;;;6.76;72.53;98959.25;5045033;28;20475;-80
2021/04/16 10:18:32;;;;;;;1.67;1.43;;;6.20;94.10;;;6.59;70.86;98964.16;5044686;28;20840;-81
2021/04/16 10:21:07;;;;;;;1.40;1.30;;;6.00;93.80;;;6.60;72.04;98967.59;5043363;28;20476;-81
2021/04/16 10:23:41;;;;;;;1.30;1.20;;;6.00;94.10;;;6.57;72.40;98967.88;5051171;28;20463;-80
2021/04/16 12:38:44;;;;;;;4.83;1.30;;;7.80;89.30;;;8.46;57.68;98896.84;5050126;28;20774;-81
2021/04/16 12:41:17;;;;;;;8.43;1.40;;;7.90;90.00;;;8.43;58.03;98894.56;5041594;28;20562;-81
2021/04/16 12:43:47;;;;;;;1.37;1.03;;;7.90;89.80;;;8.42;58.09;98898.94;5043827;28;20458;-80
2021/04/16 12:46:20;;;;;;;7.00;1.63;;;7.80;90.10;;;8.36;58.12;98890.94;5048141;28;20465;-81
2021/04/16 12:48:48;;;;;;;2.90;1.40;;;7.60;90.40;;;8.41;58.96;98889.50;5042000;28;20552;-81
2021/04/16 12:51:18;;;;;;;1.70;1.47;;;7.70;90.70;;;8.45;58.53;98890.81;5045696;28;20473;-81
2021/04/16 12:53:46;;;;;;;6.93;1.13;;;7.80;90.30;;;8.46;59.04;98886.44;5045624;28;20453;-80
2021/04/16 12:56:19;;;;;;;3.87;1.20;;;7.90;90.40;;;8.44;57.91;98888.34;5049155;28;20468;-81
2021/04/16 12:58:48;;;;;;;1.70;1.20;;;7.90;89.40;;;8.42;57.65;98891.13;5045881;28;20493;-80
2021/04/16 13:01:25;;;;;;;1.20;1.00;;;7.70;90.00;;;8.46;57.43;98884.66;5049926;28;20469;-81
2021/04/16 13:03:54;;;;;;;4.60;1.50;;;7.80;89.50;;;8.47;57.90;98883.66;5048996;28;20465;-80
2021/04/16 13:06:27;;;;;;;2.23;1.37;;;7.90;90.10;;;8.50;57.99;98885.16;5047246;28;20464;-80